Record high temperature 52.3°C Record low temperature -14.8°C Record high gust 71.9 kts Record high average 44.0 kts Record daily rain 221.2 mm Record low windchill -23.5°C Record high barometer 1099.9 hPa Record low barometer 815.2 hPa
Daily high pressure 1020.5 hPa Daily low pressure 1012.0 hPa Daily low windchill 14.8°C Daily high heat index 20.3°C Daily high gust speed 12.0 kts NW Daily high average speed 6.0 kts NW
Potts Point Sydney
LAST READING AT TIME: 08:00 DATE: 31 May 2020, time of next update: 08:10
Current WeatherMainly Sunny/Clear Current Temperature 15.4°C (59.7°F), Apparent temp 16.4°C, Apparent temp solar 18.7°C
Maximum Temperature (since 9am)20.3°C at: 11:31 Minimum Temperature (since 9am)14.8°C at: 04:28
Average windspeed (ten minute)0.0 kts (0.0 kmh) Wind Direction (ten minute)SSE (148°)
Windchill Temperature 15.4°C Maximum Gust (last hour)4.9 kts (9.0 kmh) at: 07:07
Maximum Gust (since 9am)12.0 kts (22.3 kmh) at: 23:01 Maximum 1 minute average (since 9am)6.0 kts (11.1 kmh) at: 17:16
Rainfall (last hour)0.0 mm Rainfall (since 9am)0.0 mm (0.00 in.)---
Rainfall This month 2.7 mm (0.10 in.) Rainfall To date this year 437.8 mm (17.24 in.)
Maximum rain per minute (last hour)0.0 mm/min Maximum rain per hour (last 6 hours)0.0 mm/hour
Yesterdays rainfall 0.0 mm DewPoint 13.2°C (Wet Bulb :14.2°C )
Humidity 87 %, Humidex 18.3°C Barometer corrected to msl1012.1 hPa
Pressure change -0.2 hPa (last hour) Trend (last hour)STEADY
Pressure change (last 12 hours)-3.9 hPa Pressure change (last 6 hours)-1.0 hPa
Current Indoor Temp. 23.6°C
Current Indoor Hum. 49%
Current 00:00 hours of sunshine today, current sky: Mainly Sunny
Sunshine hours for the year: 1337:39 hrs Sunshine hours for the month: 218:11 hrs
Current evapotranspiration rate 0.6 mm per day. Yesterday's reading 2.4

This page is updated from recent data collected by a WeatherFlow weather station Use the Reload or Refresh facility on your browser to retrieve the latest data.


Animated web cam image


Weather report/warning/Metars

Sydney Airport, Australia (YSSY) 33-57S 151-11E 3M
May 30, 2020 - 05:30 PM EDT / 2020.05.30 2130 UTC
Wind: from the NNW (340 degrees) at 8 MPH (7 KT):0
Visibility: greater than 7 mile(s):0
Temperature: 59 F (15 C)
Dew Point: 53 F (12 C)
Relative Humidity: 82%
Pressure (altimeter): 30.09 in. Hg (1019 hPa)
ob: YSSY 302130Z 34007KT CAVOK 15/12 Q1019 NOSIG
cycle: 21
Auckland Airport, New Zealand (NZAA) 37-01S 174-48E 6M
May 30, 2020 - 05:30 PM EDT / 2020.05.30 2130 UTC
Wind: from the ESE (110 degrees) at 9 MPH (8 KT):0
Visibility: greater than 7 mile(s):0
Sky conditions: overcast
Temperature: 59 F (15 C)
Dew Point: 53 F (12 C)
Relative Humidity: 82%
Pressure (altimeter): 30.27 in. Hg (1025 hPa)
ob: NZAA 302130Z AUTO 11008KT 9999 BKN028/// OVC033/// 15/12 Q1025 NOSIG
cycle: 21